sensor_id;sensor_type;location;lat;lon;timestamp;P1;durP1;ratioP1;P2;durP2;ratioP2
41343;SDS011;27089;50.022;7.604;2023-08-30T00:01:38;10.10;;;8.30;;
41343;SDS011;27089;50.022;7.604;2023-08-30T00:04:05;11.80;;;8.53;;
41343;SDS011;27089;50.022;7.604;2023-08-30T00:06:32;9.60;;;8.00;;
41343;SDS011;27089;50.022;7.604;2023-08-30T00:08:59;11.10;;;9.00;;
41343;SDS011;27089;50.022;7.604;2023-08-30T00:11:28;10.27;;;8.67;;
41343;SDS011;27089;50.022;7.604;2023-08-30T00:14:02;12.43;;;8.57;;
41343;SDS011;27089;50.022;7.604;2023-08-30T00:16:30;9.90;;;8.43;;
41343;SDS011;27089;50.022;7.604;2023-08-30T00:18:58;9.80;;;7.80;;
41343;SDS011;27089;50.022;7.604;2023-08-30T00:21:25;11.30;;;8.73;;
41343;SDS011;27089;50.022;7.604;2023-08-30T00:23:53;10.30;;;8.57;;
41343;SDS011;27089;50.022;7.604;2023-08-30T00:26:20;11.47;;;8.40;;
41343;SDS011;27089;50.022;7.604;2023-08-30T00:28:48;11.17;;;8.80;;
41343;SDS011;27089;50.022;7.604;2023-08-30T00:31:15;11.47;;;9.30;;
41343;SDS011;27089;50.022;7.604;2023-08-30T00:33:42;10.60;;;9.50;;
41343;SDS011;27089;50.022;7.604;2023-08-30T00:36:09;14.73;;;10.53;;
41343;SDS011;27089;50.022;7.604;2023-08-30T00:38:36;17.37;;;13.00;;
41343;SDS011;27089;50.022;7.604;2023-08-30T00:41:03;16.30;;;12.37;;
41343;SDS011;27089;50.022;7.604;2023-08-30T00:43:30;13.53;;;11.90;;
41343;SDS011;27089;50.022;7.604;2023-08-30T00:45:58;15.23;;;12.77;;
41343;SDS011;27089;50.022;7.604;2023-08-30T00:48:25;12.60;;;10.53;;
41343;SDS011;27089;50.022;7.604;2023-08-30T00:50:53;14.83;;;11.73;;
41343;SDS011;27089;50.022;7.604;2023-08-30T00:53:21;15.17;;;11.87;;
41343;SDS011;27089;50.022;7.604;2023-08-30T00:55:48;12.30;;;10.53;;
41343;SDS011;27089;50.022;7.604;2023-08-30T00:58:15;14.77;;;11.60;;
41343;SDS011;27089;50.022;7.604;2023-08-30T01:00:42;13.73;;;10.93;;
41343;SDS011;27089;50.022;7.604;2023-08-30T01:03:11;14.37;;;11.03;;
41343;SDS011;27089;50.022;7.604;2023-08-30T01:05:38;13.67;;;11.07;;
41343;SDS011;27089;50.022;7.604;2023-08-30T01:08:05;14.63;;;11.30;;
41343;SDS011;27089;50.022;7.604;2023-08-30T01:10:36;11.17;;;9.83;;
41343;SDS011;27089;50.022;7.604;2023-08-30T01:13:12;12.77;;;10.17;;
41343;SDS011;27089;50.022;7.604;2023-08-30T01:15:42;12.77;;;10.03;;
41343;SDS011;27089;50.022;7.604;2023-08-30T01:18:14;14.30;;;11.20;;
41343;SDS011;27089;50.022;7.604;2023-08-30T01:20:43;13.33;;;9.97;;
41343;SDS011;27089;50.022;7.604;2023-08-30T01:23:15;12.67;;;10.27;;
41343;SDS011;27089;50.022;7.604;2023-08-30T01:25:53;13.13;;;10.30;;
41343;SDS011;27089;50.022;7.604;2023-08-30T01:28:26;15.33;;;10.47;;
41343;SDS011;27089;50.022;7.604;2023-08-30T01:31:00;14.47;;;10.27;;
41343;SDS011;27089;50.022;7.604;2023-08-30T01:33:27;16.93;;;10.70;;
41343;SDS011;27089;50.022;7.604;2023-08-30T01:35:58;13.03;;;10.27;;
41343;SDS011;27089;50.022;7.604;2023-08-30T01:38:26;13.83;;;10.53;;
41343;SDS011;27089;50.022;7.604;2023-08-30T01:40:54;13.43;;;10.83;;
41343;SDS011;27089;50.022;7.604;2023-08-30T01:43:22;14.60;;;11.03;;
41343;SDS011;27089;50.022;7.604;2023-08-30T01:45:55;13.27;;;11.20;;
41343;SDS011;27089;50.022;7.604;2023-08-30T01:48:23;15.60;;;10.87;;
41343;SDS011;27089;50.022;7.604;2023-08-30T01:50:52;15.13;;;11.17;;
41343;SDS011;27089;50.022;7.604;2023-08-30T01:53:23;13.97;;;10.43;;
41343;SDS011;27089;50.022;7.604;2023-08-30T01:55:52;15.60;;;10.40;;
41343;SDS011;27089;50.022;7.604;2023-08-30T01:58:19;14.67;;;10.83;;
41343;SDS011;27089;50.022;7.604;2023-08-30T02:00:47;14.63;;;11.17;;
41343;SDS011;27089;50.022;7.604;2023-08-30T02:03:14;12.87;;;10.63;;
41343;SDS011;27089;50.022;7.604;2023-08-30T02:05:43;15.07;;;10.17;;
41343;SDS011;27089;50.022;7.604;2023-08-30T02:08:16;13.57;;;10.47;;
41343;SDS011;27089;50.022;7.604;2023-08-30T02:10:47;12.53;;;10.63;;
41343;SDS011;27089;50.022;7.604;2023-08-30T02:13:19;14.53;;;10.57;;
41343;SDS011;27089;50.022;7.604;2023-08-30T02:15:55;11.17;;;9.40;;
41343;SDS011;27089;50.022;7.604;2023-08-30T02:18:23;13.73;;;10.83;;
41343;SDS011;27089;50.022;7.604;2023-08-30T02:20:51;11.90;;;10.53;;
41343;SDS011;27089;50.022;7.604;2023-08-30T02:23:18;15.03;;;10.93;;
41343;SDS011;27089;50.022;7.604;2023-08-30T02:25:48;13.77;;;11.63;;
41343;SDS011;27089;50.022;7.604;2023-08-30T02:28:15;14.40;;;11.57;;
41343;SDS011;27089;50.022;7.604;2023-08-30T02:30:42;14.30;;;11.30;;
41343;SDS011;27089;50.022;7.604;2023-08-30T02:33:11;14.70;;;11.20;;
41343;SDS011;27089;50.022;7.604;2023-08-30T02:35:38;14.50;;;11.60;;
41343;SDS011;27089;50.022;7.604;2023-08-30T02:38:06;13.57;;;11.20;;
41343;SDS011;27089;50.022;7.604;2023-08-30T02:40:33;13.50;;;10.73;;
41343;SDS011;27089;50.022;7.604;2023-08-30T02:43:00;13.97;;;10.73;;
41343;SDS011;27089;50.022;7.604;2023-08-30T02:45:27;16.53;;;10.43;;
41343;SDS011;27089;50.022;7.604;2023-08-30T02:47:54;13.90;;;10.60;;
41343;SDS011;27089;50.022;7.604;2023-08-30T02:50:24;12.50;;;10.70;;
41343;SDS011;27089;50.022;7.604;2023-08-30T02:52:51;15.73;;;11.00;;
41343;SDS011;27089;50.022;7.604;2023-08-30T02:55:18;16.47;;;11.17;;
41343;SDS011;27089;50.022;7.604;2023-08-30T02:57:45;13.83;;;10.63;;
41343;SDS011;27089;50.022;7.604;2023-08-30T03:00:13;12.63;;;10.63;;
41343;SDS011;27089;50.022;7.604;2023-08-30T03:02:41;13.13;;;10.63;;
41343;SDS011;27089;50.022;7.604;2023-08-30T03:05:08;11.27;;;9.33;;
41343;SDS011;27089;50.022;7.604;2023-08-30T03:07:38;14.00;;;9.80;;
41343;SDS011;27089;50.022;7.604;2023-08-30T03:10:05;17.27;;;9.57;;
41343;SDS011;27089;50.022;7.604;2023-08-30T03:12:33;15.57;;;11.00;;
41343;SDS011;27089;50.022;7.604;2023-08-30T03:15:00;15.47;;;11.57;;
41343;SDS011;27089;50.022;7.604;2023-08-30T03:17:27;15.73;;;12.17;;
41343;SDS011;27089;50.022;7.604;2023-08-30T03:19:54;17.90;;;13.00;;
41343;SDS011;27089;50.022;7.604;2023-08-30T03:22:21;16.67;;;12.77;;
41343;SDS011;27089;50.022;7.604;2023-08-30T03:24:50;17.70;;;12.07;;
41343;SDS011;27089;50.022;7.604;2023-08-30T03:27:17;15.07;;;11.63;;
41343;SDS011;27089;50.022;7.604;2023-08-30T03:29:44;55.20;;;10.67;;
41343;SDS011;27089;50.022;7.604;2023-08-30T03:32:16;13.53;;;9.87;;
41343;SDS011;27089;50.022;7.604;2023-08-30T03:34:44;20.60;;;11.63;;
41343;SDS011;27089;50.022;7.604;2023-08-30T03:37:11;24.00;;;12.50;;
41343;SDS011;27089;50.022;7.604;2023-08-30T03:39:39;26.57;;;13.67;;
41343;SDS011;27089;50.022;7.604;2023-08-30T03:42:07;38.23;;;14.63;;
41343;SDS011;27089;50.022;7.604;2023-08-30T03:44:34;20.23;;;14.03;;
41343;SDS011;27089;50.022;7.604;2023-08-30T03:47:01;20.27;;;14.53;;
41343;SDS011;27089;50.022;7.604;2023-08-30T03:49:28;21.63;;;14.27;;
41343;SDS011;27089;50.022;7.604;2023-08-30T03:51:56;22.50;;;15.57;;
41343;SDS011;27089;50.022;7.604;2023-08-30T03:54:23;19.67;;;13.80;;
41343;SDS011;27089;50.022;7.604;2023-08-30T03:56:50;17.37;;;12.63;;
41343;SDS011;27089;50.022;7.604;2023-08-30T03:59:18;16.90;;;12.60;;
41343;SDS011;27089;50.022;7.604;2023-08-30T04:01:47;15.17;;;11.23;;
41343;SDS011;27089;50.022;7.604;2023-08-30T04:04:15;18.50;;;11.77;;
41343;SDS011;27089;50.022;7.604;2023-08-30T04:06:42;13.90;;;11.53;;
41343;SDS011;27089;50.022;7.604;2023-08-30T04:09:09;18.23;;;12.80;;
41343;SDS011;27089;50.022;7.604;2023-08-30T04:11:36;18.03;;;12.67;;
41343;SDS011;27089;50.022;7.604;2023-08-30T04:14:03;16.63;;;11.77;;
41343;SDS011;27089;50.022;7.604;2023-08-30T04:16:31;17.07;;;12.20;;
41343;SDS011;27089;50.022;7.604;2023-08-30T04:18:58;15.33;;;11.67;;
41343;SDS011;27089;50.022;7.604;2023-08-30T04:21:26;17.17;;;11.37;;
41343;SDS011;27089;50.022;7.604;2023-08-30T04:23:53;15.10;;;11.37;;
41343;SDS011;27089;50.022;7.604;2023-08-30T04:26:19;16.57;;;9.73;;
41343;SDS011;27089;50.022;7.604;2023-08-30T04:28:46;14.23;;;10.20;;
41343;SDS011;27089;50.022;7.604;2023-08-30T04:31:13;12.13;;;9.93;;
41343;SDS011;27089;50.022;7.604;2023-08-30T04:33:42;11.93;;;10.57;;
41343;SDS011;27089;50.022;7.604;2023-08-30T04:36:09;13.17;;;10.60;;
41343;SDS011;27089;50.022;7.604;2023-08-30T04:38:36;14.57;;;10.70;;
41343;SDS011;27089;50.022;7.604;2023-08-30T04:41:04;13.30;;;9.80;;
41343;SDS011;27089;50.022;7.604;2023-08-30T04:43:31;13.83;;;11.10;;
41343;SDS011;27089;50.022;7.604;2023-08-30T04:45:58;13.80;;;11.10;;
41343;SDS011;27089;50.022;7.604;2023-08-30T04:48:25;14.23;;;11.20;;
41343;SDS011;27089;50.022;7.604;2023-08-30T04:51:01;17.77;;;12.83;;
41343;SDS011;27089;50.022;7.604;2023-08-30T04:53:29;16.90;;;12.77;;
41343;SDS011;27089;50.022;7.604;2023-08-30T04:55:56;16.00;;;12.07;;
41343;SDS011;27089;50.022;7.604;2023-08-30T04:58:23;19.33;;;13.50;;
41343;SDS011;27089;50.022;7.604;2023-08-30T05:00:50;17.63;;;13.20;;
41343;SDS011;27089;50.022;7.604;2023-08-30T05:03:17;20.07;;;12.87;;
41343;SDS011;27089;50.022;7.604;2023-08-30T05:05:45;19.93;;;13.30;;
41343;SDS011;27089;50.022;7.604;2023-08-30T05:08:13;48.00;;;30.67;;
41343;SDS011;27089;50.022;7.604;2023-08-30T05:10:40;30.80;;;22.37;;
41343;SDS011;27089;50.022;7.604;2023-08-30T05:13:08;37.80;;;30.33;;
41343;SDS011;27089;50.022;7.604;2023-08-30T05:15:36;18.77;;;15.27;;
41343;SDS011;27089;50.022;7.604;2023-08-30T05:18:03;14.17;;;11.40;;
41343;SDS011;27089;50.022;7.604;2023-08-30T05:20:30;18.17;;;14.97;;
41343;SDS011;27089;50.022;7.604;2023-08-30T05:22:57;11.50;;;9.00;;
41343;SDS011;27089;50.022;7.604;2023-08-30T05:25:26;9.53;;;8.20;;
41343;SDS011;27089;50.022;7.604;2023-08-30T05:27:53;10.63;;;8.30;;
41343;SDS011;27089;50.022;7.604;2023-08-30T05:30:20;10.10;;;8.13;;
41343;SDS011;27089;50.022;7.604;2023-08-30T05:32:47;13.77;;;9.03;;
41343;SDS011;27089;50.022;7.604;2023-08-30T05:35:14;20.33;;;9.77;;
41343;SDS011;27089;50.022;7.604;2023-08-30T05:37:41;24.77;;;10.57;;
41343;SDS011;27089;50.022;7.604;2023-08-30T05:40:08;12.50;;;9.70;;
41343;SDS011;27089;50.022;7.604;2023-08-30T05:42:41;12.07;;;9.47;;
41343;SDS011;27089;50.022;7.604;2023-08-30T05:45:10;12.60;;;9.27;;
41343;SDS011;27089;50.022;7.604;2023-08-30T05:47:37;10.03;;;8.67;;
41343;SDS011;27089;50.022;7.604;2023-08-30T05:50:04;9.93;;;7.70;;
41343;SDS011;27089;50.022;7.604;2023-08-30T05:52:32;18.50;;;10.00;;
41343;SDS011;27089;50.022;7.604;2023-08-30T05:55:00;43.00;;;11.90;;
41343;SDS011;27089;50.022;7.604;2023-08-30T05:57:28;45.87;;;12.43;;
41343;SDS011;27089;50.022;7.604;2023-08-30T06:00:00;41.17;;;11.87;;
41343;SDS011;27089;50.022;7.604;2023-08-30T06:02:27;27.40;;;10.43;;
41343;SDS011;27089;50.022;7.604;2023-08-30T06:04:54;26.73;;;10.23;;
41343;SDS011;27089;50.022;7.604;2023-08-30T06:07:21;21.90;;;8.90;;
41343;SDS011;27089;50.022;7.604;2023-08-30T06:09:48;12.13;;;8.43;;
41343;SDS011;27089;50.022;7.604;2023-08-30T06:12:15;9.80;;;8.10;;
41343;SDS011;27089;50.022;7.604;2023-08-30T06:14:43;10.27;;;8.00;;
41343;SDS011;27089;50.022;7.604;2023-08-30T06:17:17;8.87;;;7.77;;
41343;SDS011;27089;50.022;7.604;2023-08-30T06:19:44;8.77;;;7.67;;
41343;SDS011;27089;50.022;7.604;2023-08-30T06:22:11;8.37;;;7.33;;
41343;SDS011;27089;50.022;7.604;2023-08-30T06:24:38;9.00;;;7.30;;
41343;SDS011;27089;50.022;7.604;2023-08-30T06:27:06;8.00;;;7.20;;
41343;SDS011;27089;50.022;7.604;2023-08-30T06:29:33;6.93;;;6.20;;
41343;SDS011;27089;50.022;7.604;2023-08-30T06:32:00;7.43;;;6.70;;
41343;SDS011;27089;50.022;7.604;2023-08-30T06:34:29;7.33;;;6.60;;
41343;SDS011;27089;50.022;7.604;2023-08-30T06:36:55;8.07;;;6.87;;
41343;SDS011;27089;50.022;7.604;2023-08-30T06:39:22;7.07;;;6.30;;
41343;SDS011;27089;50.022;7.604;2023-08-30T06:41:49;7.73;;;6.77;;
41343;SDS011;27089;50.022;7.604;2023-08-30T06:44:16;7.80;;;6.97;;
41343;SDS011;27089;50.022;7.604;2023-08-30T06:46:43;8.07;;;7.27;;
41343;SDS011;27089;50.022;7.604;2023-08-30T06:49:10;9.43;;;7.17;;
41343;SDS011;27089;50.022;7.604;2023-08-30T06:51:38;13.10;;;10.17;;
41343;SDS011;27089;50.022;7.604;2023-08-30T06:54:05;16.70;;;10.03;;
41343;SDS011;27089;50.022;7.604;2023-08-30T06:56:32;10.40;;;7.03;;
41343;SDS011;27089;50.022;7.604;2023-08-30T06:58:59;9.00;;;6.30;;
41343;SDS011;27089;50.022;7.604;2023-08-30T07:01:27;7.97;;;6.22;;
41343;SDS011;27089;50.022;7.604;2023-08-30T07:03:54;6.32;;;5.72;;
41343;SDS011;27089;50.022;7.604;2023-08-30T07:06:21;7.05;;;6.28;;
41343;SDS011;27089;50.022;7.604;2023-08-30T07:08:49;10.65;;;9.60;;
41343;SDS011;27089;50.022;7.604;2023-08-30T07:11:16;7.22;;;6.43;;
41343;SDS011;27089;50.022;7.604;2023-08-30T07:13:43;7.38;;;6.53;;
41343;SDS011;27089;50.022;7.604;2023-08-30T07:16:10;6.97;;;6.28;;
41343;SDS011;27089;50.022;7.604;2023-08-30T07:18:37;8.70;;;7.85;;
41343;SDS011;27089;50.022;7.604;2023-08-30T07:21:04;14.45;;;13.15;;
41343;SDS011;27089;50.022;7.604;2023-08-30T07:23:32;9.38;;;8.48;;
41343;SDS011;27089;50.022;7.604;2023-08-30T07:26:00;7.70;;;6.90;;
41343;SDS011;27089;50.022;7.604;2023-08-30T07:28:27;7.30;;;6.53;;
41343;SDS011;27089;50.022;7.604;2023-08-30T07:31:01;7.50;;;6.80;;
41343;SDS011;27089;50.022;7.604;2023-08-30T07:33:28;6.53;;;5.93;;
41343;SDS011;27089;50.022;7.604;2023-08-30T07:35:55;6.65;;;6.00;;
41343;SDS011;27089;50.022;7.604;2023-08-30T07:38:23;9.02;;;6.40;;
41343;SDS011;27089;50.022;7.604;2023-08-30T07:40:50;6.97;;;6.38;;
41343;SDS011;27089;50.022;7.604;2023-08-30T07:43:18;7.22;;;5.93;;
41343;SDS011;27089;50.022;7.604;2023-08-30T07:45:45;7.00;;;6.05;;
41343;SDS011;27089;50.022;7.604;2023-08-30T07:48:12;6.03;;;5.50;;
41343;SDS011;27089;50.022;7.604;2023-08-30T07:50:39;5.70;;;5.10;;
41343;SDS011;27089;50.022;7.604;2023-08-30T07:53:06;5.95;;;5.32;;
41343;SDS011;27089;50.022;7.604;2023-08-30T07:55:35;7.43;;;5.88;;
41343;SDS011;27089;50.022;7.604;2023-08-30T07:58:02;6.10;;;5.50;;
41343;SDS011;27089;50.022;7.604;2023-08-30T08:00:31;6.10;;;5.53;;
41343;SDS011;27089;50.022;7.604;2023-08-30T08:02:58;5.82;;;5.20;;
41343;SDS011;27089;50.022;7.604;2023-08-30T08:05:25;6.43;;;5.75;;
41343;SDS011;27089;50.022;7.604;2023-08-30T08:07:52;6.25;;;5.57;;
41343;SDS011;27089;50.022;7.604;2023-08-30T08:10:19;5.97;;;5.38;;
41343;SDS011;27089;50.022;7.604;2023-08-30T08:12:47;5.93;;;5.32;;
41343;SDS011;27089;50.022;7.604;2023-08-30T08:15:14;6.10;;;4.90;;
41343;SDS011;27089;50.022;7.604;2023-08-30T08:17:42;5.72;;;5.22;;
41343;SDS011;27089;50.022;7.604;2023-08-30T08:20:10;5.95;;;5.40;;
41343;SDS011;27089;50.022;7.604;2023-08-30T08:22:39;5.60;;;4.88;;
41343;SDS011;27089;50.022;7.604;2023-08-30T08:25:06;5.35;;;4.82;;
41343;SDS011;27089;50.022;7.604;2023-08-30T08:27:35;4.90;;;4.50;;
41343;SDS011;27089;50.022;7.604;2023-08-30T08:30:02;7.13;;;4.63;;
41343;SDS011;27089;50.022;7.604;2023-08-30T08:32:30;5.00;;;4.53;;
41343;SDS011;27089;50.022;7.604;2023-08-30T08:34:59;4.60;;;4.20;;
41343;SDS011;27089;50.022;7.604;2023-08-30T08:37:27;3.95;;;3.55;;
41343;SDS011;27089;50.022;7.604;2023-08-30T08:39:54;3.92;;;3.63;;
41343;SDS011;27089;50.022;7.604;2023-08-30T08:42:21;5.13;;;3.90;;
41343;SDS011;27089;50.022;7.604;2023-08-30T08:44:50;4.57;;;3.90;;
41343;SDS011;27089;50.022;7.604;2023-08-30T08:47:18;3.95;;;3.55;;
41343;SDS011;27089;50.022;7.604;2023-08-30T08:49:46;3.83;;;2.83;;
41343;SDS011;27089;50.022;7.604;2023-08-30T08:52:14;4.80;;;3.13;;
41343;SDS011;27089;50.022;7.604;2023-08-30T08:54:42;3.90;;;2.92;;
41343;SDS011;27089;50.022;7.604;2023-08-30T08:57:10;2.88;;;2.58;;
41343;SDS011;27089;50.022;7.604;2023-08-30T08:59:37;3.55;;;2.70;;
41343;SDS011;27089;50.022;7.604;2023-08-30T09:02:04;3.17;;;2.80;;
41343;SDS011;27089;50.022;7.604;2023-08-30T09:04:32;2.95;;;2.53;;
41343;SDS011;27089;50.022;7.604;2023-08-30T09:06:59;4.07;;;2.55;;
41343;SDS011;27089;50.022;7.604;2023-08-30T09:09:27;2.88;;;2.42;;
41343;SDS011;27089;50.022;7.604;2023-08-30T09:11:55;3.97;;;2.60;;
41343;SDS011;27089;50.022;7.604;2023-08-30T09:14:23;4.00;;;2.90;;
41343;SDS011;27089;50.022;7.604;2023-08-30T09:16:55;4.05;;;2.50;;
41343;SDS011;27089;50.022;7.604;2023-08-30T09:19:23;3.63;;;2.60;;
41343;SDS011;27089;50.022;7.604;2023-08-30T09:21:51;3.55;;;2.30;;
41343;SDS011;27089;50.022;7.604;2023-08-30T09:24:18;3.55;;;2.47;;
41343;SDS011;27089;50.022;7.604;2023-08-30T09:26:48;3.00;;;2.30;;
41343;SDS011;27089;50.022;7.604;2023-08-30T09:29:16;2.97;;;2.53;;
41343;SDS011;27089;50.022;7.604;2023-08-30T09:31:45;3.22;;;2.65;;
41343;SDS011;27089;50.022;7.604;2023-08-30T09:34:12;5.70;;;2.67;;
41343;SDS011;27089;50.022;7.604;2023-08-30T09:36:40;3.28;;;2.53;;
41343;SDS011;27089;50.022;7.604;2023-08-30T09:39:08;2.45;;;2.25;;
41343;SDS011;27089;50.022;7.604;2023-08-30T09:41:37;3.35;;;2.53;;
41343;SDS011;27089;50.022;7.604;2023-08-30T09:44:08;3.22;;;2.50;;
41343;SDS011;27089;50.022;7.604;2023-08-30T09:46:42;3.28;;;2.38;;
41343;SDS011;27089;50.022;7.604;2023-08-30T09:49:09;4.50;;;2.20;;
41343;SDS011;27089;50.022;7.604;2023-08-30T09:51:37;2.72;;;2.10;;
41343;SDS011;27089;50.022;7.604;2023-08-30T09:54:13;4.68;;;2.25;;
41343;SDS011;27089;50.022;7.604;2023-08-30T09:56:42;4.18;;;1.95;;
41343;SDS011;27089;50.022;7.604;2023-08-30T09:59:11;3.47;;;2.33;;
41343;SDS011;27089;50.022;7.604;2023-08-30T10:01:39;3.20;;;2.30;;
41343;SDS011;27089;50.022;7.604;2023-08-30T10:04:07;5.82;;;2.70;;
41343;SDS011;27089;50.022;7.604;2023-08-30T10:06:35;4.88;;;2.58;;
41343;SDS011;27089;50.022;7.604;2023-08-30T10:09:03;3.50;;;2.70;;
41343;SDS011;27089;50.022;7.604;2023-08-30T10:11:32;2.90;;;2.60;;
41343;SDS011;27089;50.022;7.604;2023-08-30T10:14:01;4.38;;;2.90;;
41343;SDS011;27089;50.022;7.604;2023-08-30T10:16:32;4.63;;;2.33;;
41343;SDS011;27089;50.022;7.604;2023-08-30T10:19:07;3.85;;;2.42;;
41343;SDS011;27089;50.022;7.604;2023-08-30T10:21:37;3.55;;;2.90;;
41343;SDS011;27089;50.022;7.604;2023-08-30T10:24:05;3.40;;;2.30;;
41343;SDS011;27089;50.022;7.604;2023-08-30T10:26:35;3.15;;;2.60;;
41343;SDS011;27089;50.022;7.604;2023-08-30T10:29:04;3.85;;;2.80;;
41343;SDS011;27089;50.022;7.604;2023-08-30T10:31:34;5.88;;;3.03;;
41343;SDS011;27089;50.022;7.604;2023-08-30T10:34:01;5.57;;;3.90;;
41343;SDS011;27089;50.022;7.604;2023-08-30T10:36:38;5.45;;;4.20;;
41343;SDS011;27089;50.022;7.604;2023-08-30T10:39:10;5.18;;;2.97;;
41343;SDS011;27089;50.022;7.604;2023-08-30T10:41:53;4.45;;;3.42;;
41343;SDS011;27089;50.022;7.604;2023-08-30T10:44:21;3.05;;;2.60;;
41343;SDS011;27089;50.022;7.604;2023-08-30T10:46:52;5.10;;;3.30;;
41343;SDS011;27089;50.022;7.604;2023-08-30T10:49:21;8.80;;;5.70;;
41343;SDS011;27089;50.022;7.604;2023-08-30T10:51:54;3.88;;;3.40;;
41343;SDS011;27089;50.022;7.604;2023-08-30T10:54:22;4.22;;;2.78;;
41343;SDS011;27089;50.022;7.604;2023-08-30T10:56:54;3.78;;;3.20;;
41343;SDS011;27089;50.022;7.604;2023-08-30T10:59:23;3.95;;;2.67;;
41343;SDS011;27089;50.022;7.604;2023-08-30T11:01:50;3.13;;;2.47;;
41343;SDS011;27089;50.022;7.604;2023-08-30T11:04:20;4.50;;;2.42;;
41343;SDS011;27089;50.022;7.604;2023-08-30T11:06:49;3.42;;;2.85;;
41343;SDS011;27089;50.022;7.604;2023-08-30T11:09:17;4.15;;;3.13;;
41343;SDS011;27089;50.022;7.604;2023-08-30T11:11:46;4.38;;;2.90;;
41343;SDS011;27089;50.022;7.604;2023-08-30T11:14:14;4.38;;;2.67;;
41343;SDS011;27089;50.022;7.604;2023-08-30T11:16:42;3.25;;;2.40;;
41343;SDS011;27089;50.022;7.604;2023-08-30T11:19:11;3.67;;;2.90;;
41343;SDS011;27089;50.022;7.604;2023-08-30T11:21:38;3.40;;;2.40;;
41343;SDS011;27089;50.022;7.604;2023-08-30T11:24:06;3.05;;;2.30;;
41343;SDS011;27089;50.022;7.604;2023-08-30T11:26:34;3.78;;;2.60;;
41343;SDS011;27089;50.022;7.604;2023-08-30T11:29:04;5.20;;;2.58;;
41343;SDS011;27089;50.022;7.604;2023-08-30T11:31:31;3.30;;;2.67;;
41343;SDS011;27089;50.022;7.604;2023-08-30T11:33:58;4.57;;;2.63;;
41343;SDS011;27089;50.022;7.604;2023-08-30T11:36:27;5.47;;;2.63;;
41343;SDS011;27089;50.022;7.604;2023-08-30T11:38:56;4.65;;;2.95;;
41343;SDS011;27089;50.022;7.604;2023-08-30T11:41:24;4.25;;;2.92;;
41343;SDS011;27089;50.022;7.604;2023-08-30T11:43:53;3.65;;;2.70;;
41343;SDS011;27089;50.022;7.604;2023-08-30T11:46:21;4.90;;;2.85;;
41343;SDS011;27089;50.022;7.604;2023-08-30T11:48:48;4.70;;;3.10;;
41343;SDS011;27089;50.022;7.604;2023-08-30T11:51:16;6.50;;;3.15;;
41343;SDS011;27089;50.022;7.604;2023-08-30T11:53:46;4.93;;;2.80;;
41343;SDS011;27089;50.022;7.604;2023-08-30T11:56:14;4.63;;;3.08;;
41343;SDS011;27089;50.022;7.604;2023-08-30T11:58:42;3.63;;;2.75;;
41343;SDS011;27089;50.022;7.604;2023-08-30T12:01:09;3.75;;;2.90;;
41343;SDS011;27089;50.022;7.604;2023-08-30T12:03:37;4.15;;;3.28;;
41343;SDS011;27089;50.022;7.604;2023-08-30T12:06:09;3.58;;;2.90;;
41343;SDS011;27089;50.022;7.604;2023-08-30T12:08:36;7.38;;;4.22;;
41343;SDS011;27089;50.022;7.604;2023-08-30T12:11:05;4.72;;;3.90;;
41343;SDS011;27089;50.022;7.604;2023-08-30T12:13:32;3.20;;;2.65;;
41343;SDS011;27089;50.022;7.604;2023-08-30T12:16:01;4.15;;;2.80;;
41343;SDS011;27089;50.022;7.604;2023-08-30T12:18:29;4.70;;;3.17;;
41343;SDS011;27089;50.022;7.604;2023-08-30T12:20:59;4.45;;;2.83;;
41343;SDS011;27089;50.022;7.604;2023-08-30T12:23:29;4.32;;;3.00;;
41343;SDS011;27089;50.022;7.604;2023-08-30T12:25:56;5.68;;;3.17;;
41343;SDS011;27089;50.022;7.604;2023-08-30T12:28:26;3.53;;;2.60;;
41343;SDS011;27089;50.022;7.604;2023-08-30T12:30:53;4.85;;;2.70;;
41343;SDS011;27089;50.022;7.604;2023-08-30T12:33:21;3.85;;;2.88;;
41343;SDS011;27089;50.022;7.604;2023-08-30T12:35:50;4.55;;;2.58;;
41343;SDS011;27089;50.022;7.604;2023-08-30T12:38:17;4.30;;;2.88;;
41343;SDS011;27089;50.022;7.604;2023-08-30T12:40:44;4.28;;;2.72;;
41343;SDS011;27089;50.022;7.604;2023-08-30T12:43:12;4.20;;;2.35;;
41343;SDS011;27089;50.022;7.604;2023-08-30T12:45:41;4.85;;;3.08;;
41343;SDS011;27089;50.022;7.604;2023-08-30T12:48:09;3.85;;;2.53;;
41343;SDS011;27089;50.022;7.604;2023-08-30T12:50:38;4.18;;;2.72;;
41343;SDS011;27089;50.022;7.604;2023-08-30T12:53:05;4.50;;;2.92;;
41343;SDS011;27089;50.022;7.604;2023-08-30T12:55:34;3.92;;;2.60;;
41343;SDS011;27089;50.022;7.604;2023-08-30T12:58:01;4.50;;;3.42;;
41343;SDS011;27089;50.022;7.604;2023-08-30T13:00:28;5.07;;;2.80;;
41343;SDS011;27089;50.022;7.604;2023-08-30T13:02:57;5.10;;;2.45;;
41343;SDS011;27089;50.022;7.604;2023-08-30T13:05:24;3.88;;;2.90;;
41343;SDS011;27089;50.022;7.604;2023-08-30T13:07:51;4.22;;;2.88;;
41343;SDS011;27089;50.022;7.604;2023-08-30T13:10:18;2.97;;;2.63;;
41343;SDS011;27089;50.022;7.604;2023-08-30T13:12:45;5.32;;;2.95;;
41343;SDS011;27089;50.022;7.604;2023-08-30T13:15:12;4.05;;;2.90;;
41343;SDS011;27089;50.022;7.604;2023-08-30T13:17:39;4.07;;;2.70;;
41343;SDS011;27089;50.022;7.604;2023-08-30T13:20:08;5.82;;;2.83;;
41343;SDS011;27089;50.022;7.604;2023-08-30T13:22:36;4.50;;;2.63;;
41343;SDS011;27089;50.022;7.604;2023-08-30T13:25:03;3.35;;;2.58;;
41343;SDS011;27089;50.022;7.604;2023-08-30T13:27:31;3.25;;;2.42;;
41343;SDS011;27089;50.022;7.604;2023-08-30T13:29:59;4.03;;;2.38;;
41343;SDS011;27089;50.022;7.604;2023-08-30T13:32:26;5.50;;;2.70;;
41343;SDS011;27089;50.022;7.604;2023-08-30T13:34:53;5.30;;;2.70;;
41343;SDS011;27089;50.022;7.604;2023-08-30T13:37:21;4.60;;;2.80;;
41343;SDS011;27089;50.022;7.604;2023-08-30T13:39:49;3.92;;;2.58;;
41343;SDS011;27089;50.022;7.604;2023-08-30T13:42:18;4.75;;;2.55;;
41343;SDS011;27089;50.022;7.604;2023-08-30T13:44:46;4.45;;;2.85;;
41343;SDS011;27089;50.022;7.604;2023-08-30T13:47:13;3.42;;;2.72;;
41343;SDS011;27089;50.022;7.604;2023-08-30T13:49:41;4.88;;;2.60;;
41343;SDS011;27089;50.022;7.604;2023-08-30T13:52:08;4.13;;;2.63;;
41343;SDS011;27089;50.022;7.604;2023-08-30T13:54:37;2.90;;;2.50;;
41343;SDS011;27089;50.022;7.604;2023-08-30T13:57:04;4.28;;;2.47;;
41343;SDS011;27089;50.022;7.604;2023-08-30T13:59:31;6.72;;;3.83;;
41343;SDS011;27089;50.022;7.604;2023-08-30T14:02:00;4.38;;;2.80;;
41343;SDS011;27089;50.022;7.604;2023-08-30T14:04:29;6.50;;;2.70;;
41343;SDS011;27089;50.022;7.604;2023-08-30T14:06:58;4.47;;;2.22;;
41343;SDS011;27089;50.022;7.604;2023-08-30T14:09:25;4.85;;;2.17;;
41343;SDS011;27089;50.022;7.604;2023-08-30T14:11:53;4.88;;;2.30;;
41343;SDS011;27089;50.022;7.604;2023-08-30T14:14:21;5.15;;;1.95;;
41343;SDS011;27089;50.022;7.604;2023-08-30T14:16:48;3.85;;;2.33;;
41343;SDS011;27089;50.022;7.604;2023-08-30T14:19:15;4.90;;;2.50;;
41343;SDS011;27089;50.022;7.604;2023-08-30T14:21:43;3.50;;;2.30;;
41343;SDS011;27089;50.022;7.604;2023-08-30T14:24:10;2.92;;;2.50;;
41343;SDS011;27089;50.022;7.604;2023-08-30T14:26:37;5.22;;;2.40;;
41343;SDS011;27089;50.022;7.604;2023-08-30T14:29:06;3.22;;;2.42;;
41343;SDS011;27089;50.022;7.604;2023-08-30T14:31:33;3.60;;;2.47;;
41343;SDS011;27089;50.022;7.604;2023-08-30T14:34:00;4.32;;;2.22;;
41343;SDS011;27089;50.022;7.604;2023-08-30T14:36:27;3.80;;;2.33;;
41343;SDS011;27089;50.022;7.604;2023-08-30T14:38:54;7.53;;;2.10;;
41343;SDS011;27089;50.022;7.604;2023-08-30T14:41:22;2.88;;;2.03;;
41343;SDS011;27089;50.022;7.604;2023-08-30T14:43:49;4.22;;;2.40;;